createdAt,value
2023-04-06T00:01:45.635Z,11.75
2023-04-06T00:04:48.628Z,9.38
2023-04-06T00:07:51.478Z,8.50
2023-04-06T00:10:54.593Z,9.20
2023-04-06T00:13:57.209Z,9.65
2023-04-06T00:17:00.142Z,8.20
2023-04-06T00:20:02.765Z,9.68
2023-04-06T00:23:05.772Z,9.25
2023-04-06T00:26:09.637Z,9.65
2023-04-06T00:29:12.973Z,6.65
2023-04-06T00:32:15.725Z,8.75
2023-04-06T00:35:18.542Z,9.40
2023-04-06T00:38:21.881Z,10.95
2023-04-06T00:41:24.524Z,8.05
2023-04-06T00:44:27.482Z,8.50
2023-04-06T00:47:29.991Z,9.63
2023-04-06T00:50:32.912Z,12.55
2023-04-06T00:53:35.645Z,8.88
2023-04-06T00:56:38.702Z,9.48
2023-04-06T00:59:41.817Z,8.32
2023-04-06T01:02:47.498Z,10.02
2023-04-06T01:05:59.320Z,11.38
2023-04-06T01:09:09.718Z,10.52
2023-04-06T01:12:12.545Z,10.90
2023-04-06T01:15:16.270Z,10.02
2023-04-06T01:18:28.208Z,8.85
2023-04-06T01:21:41.183Z,9.40
2023-04-06T01:24:57.810Z,8.38
2023-04-06T01:28:07.216Z,10.98
2023-04-06T01:31:27.934Z,10.55
2023-04-06T01:34:30.737Z,8.90
2023-04-06T01:37:38.085Z,11.85
2023-04-06T01:40:44.138Z,11.23
2023-04-06T01:43:48.378Z,8.88
2023-04-06T01:46:51.158Z,11.07
2023-04-06T01:49:55.615Z,14.45
2023-04-06T01:52:58.762Z,10.95
2023-04-06T01:56:03.822Z,12.90
2023-04-06T01:59:14.529Z,9.63
2023-04-06T02:02:19.300Z,11.73
2023-04-06T02:05:32.301Z,11.90
2023-04-06T02:08:35.995Z,10.43
2023-04-06T02:11:39.311Z,10.20
2023-04-06T02:14:42.294Z,11.50
2023-04-06T02:17:45.945Z,12.35
2023-04-06T02:20:48.688Z,10.82
2023-04-06T02:23:51.363Z,10.20
2023-04-06T02:26:54.122Z,10.95
2023-04-06T02:29:56.691Z,11.95
2023-04-06T02:33:01.465Z,12.02
2023-04-06T02:36:06.292Z,10.63
2023-04-06T02:39:09.314Z,11.13
2023-04-06T02:42:12.761Z,11.68
2023-04-06T02:45:15.702Z,12.48
2023-04-06T02:48:21.217Z,11.25
2023-04-06T02:51:23.861Z,7.70
2023-04-06T02:54:30.902Z,9.10
2023-04-06T02:57:34.309Z,11.88
2023-04-06T03:00:38.379Z,9.88
2023-04-06T03:03:41.509Z,9.90
2023-04-06T03:06:50.601Z,11.48
2023-04-06T03:10:02.864Z,11.60
2023-04-06T03:13:07.860Z,14.57
2023-04-06T03:16:28.876Z,12.73
2023-04-06T03:19:32.138Z,11.80
2023-04-06T03:22:37.938Z,12.48
2023-04-06T03:25:42.282Z,12.73
2023-04-06T03:28:48.390Z,12.85
2023-04-06T03:31:52.388Z,12.85
2023-04-06T03:35:09.555Z,11.88
2023-04-06T03:38:12.122Z,13.80
2023-04-06T03:41:15.210Z,15.10
2023-04-06T03:44:24.138Z,10.45
2023-04-06T03:47:27.181Z,14.35
2023-04-06T03:50:33.746Z,12.38
2023-04-06T03:53:38.444Z,12.30
2023-04-06T03:56:41.589Z,14.57
2023-04-06T03:59:44.222Z,12.55
2023-04-06T04:02:46.901Z,14.70
2023-04-06T04:05:52.372Z,14.60
2023-04-06T04:08:55.468Z,12.52
2023-04-06T04:11:58.923Z,13.35
2023-04-06T04:15:01.463Z,13.38
2023-04-06T04:18:04.369Z,12.18
2023-04-06T04:21:07.040Z,12.20
2023-04-06T04:24:10.277Z,14.70
2023-04-06T04:27:13.555Z,14.38
2023-04-06T04:30:17.684Z,13.88
2023-04-06T04:33:20.128Z,13.55
2023-04-06T04:36:24.301Z,16.70
2023-04-06T04:39:26.809Z,15.13
2023-04-06T04:42:36.770Z,14.52
2023-04-06T04:45:42.777Z,17.13
2023-04-06T04:49:06.627Z,15.38
2023-04-06T04:52:09.756Z,17.20
2023-04-06T04:55:24.263Z,15.07
2023-04-06T04:58:31.438Z,15.70
2023-04-06T05:01:47.667Z,16.85
2023-04-06T05:04:58.001Z,15.68
2023-04-06T05:08:03.339Z,16.77
2023-04-06T05:11:19.321Z,15.02
2023-04-06T05:14:29.982Z,11.88
2023-04-06T05:17:33.906Z,18.40
2023-04-06T05:20:36.835Z,18.92
2023-04-06T05:23:39.704Z,16.33
2023-04-06T05:26:42.824Z,19.90
2023-04-06T05:29:56.675Z,17.58
2023-04-06T05:33:02.775Z,14.75
2023-04-06T05:36:15.940Z,18.50
2023-04-06T05:39:21.401Z,19.63
2023-04-06T05:42:26.709Z,14.02
2023-04-06T05:45:32.797Z,13.63
2023-04-06T05:48:36.034Z,15.63
2023-04-06T05:51:39.710Z,14.20
2023-04-06T05:54:42.571Z,16.23
2023-04-06T05:57:45.262Z,15.32
2023-04-06T06:00:50.836Z,13.10
2023-04-06T06:03:57.585Z,14.18
2023-04-06T06:07:03.970Z,17.77
2023-04-06T06:10:15.084Z,13.65
2023-04-06T06:13:17.814Z,13.70
2023-04-06T06:16:20.754Z,12.73
2023-04-06T06:19:24.859Z,18.95
2023-04-06T06:22:30.874Z,18.27
2023-04-06T06:25:34.011Z,14.57
2023-04-06T06:28:37.598Z,15.43
2023-04-06T06:31:40.295Z,16.30
2023-04-06T06:34:42.986Z,18.45
2023-04-06T06:37:46.516Z,15.57
2023-04-06T06:40:52.336Z,13.70
2023-04-06T06:46:58.457Z,11.07
2023-04-06T06:50:01.394Z,16.70
2023-04-06T06:53:03.916Z,11.85
2023-04-06T06:56:07.061Z,15.30
2023-04-06T06:59:10.798Z,13.10
2023-04-06T07:02:14.355Z,12.27
2023-04-06T07:05:27.650Z,14.18
2023-04-06T07:08:33.198Z,15.35
2023-04-06T07:11:35.722Z,13.95
2023-04-06T07:17:46.745Z,12.20
2023-04-06T07:20:49.632Z,12.35
2023-04-06T07:23:53.317Z,11.85
2023-04-06T07:26:58.210Z,9.68
2023-04-06T07:30:02.019Z,9.02
2023-04-06T07:33:04.851Z,9.13
2023-04-06T07:36:08.384Z,9.65
2023-04-06T07:39:11.646Z,8.45
2023-04-06T07:42:14.208Z,9.93
2023-04-06T07:45:17.655Z,10.20
2023-04-06T07:48:20.200Z,8.93
2023-04-06T07:51:22.759Z,9.90
2023-04-06T07:54:25.789Z,9.88
2023-04-06T07:57:28.300Z,12.00
2023-04-06T08:00:31.399Z,11.20
2023-04-06T08:03:37.294Z,10.80
2023-04-06T08:06:39.981Z,10.95
2023-04-06T08:09:42.613Z,12.50
2023-04-06T08:12:45.165Z,10.93
2023-04-06T08:15:47.788Z,12.45
2023-04-06T08:18:50.263Z,9.80
2023-04-06T08:21:52.936Z,11.75
2023-04-06T08:24:55.508Z,10.98
2023-04-06T08:27:58.224Z,11.68
2023-04-06T08:31:01.016Z,9.93
2023-04-06T08:34:04.842Z,11.30
2023-04-06T08:37:07.564Z,10.48
2023-04-06T08:40:10.615Z,12.13
2023-04-06T08:43:14.839Z,11.77
2023-04-06T08:46:17.340Z,11.68
2023-04-06T08:49:20.449Z,10.55
2023-04-06T08:52:23.091Z,10.23
2023-04-06T08:55:25.630Z,10.63
2023-04-06T08:58:37.648Z,11.35
2023-04-06T09:01:44.300Z,11.40
2023-04-06T09:04:51.000Z,9.52
2023-04-06T09:07:53.917Z,12.35
2023-04-06T09:10:56.450Z,12.55
2023-04-06T09:13:59.288Z,10.50
2023-04-06T09:17:01.828Z,9.68
2023-04-06T09:20:04.636Z,11.57
2023-04-06T09:23:07.185Z,11.75
2023-04-06T09:26:13.370Z,10.73
2023-04-06T09:29:28.025Z,9.93
2023-04-06T09:32:30.885Z,10.55
2023-04-06T09:35:34.196Z,9.20
2023-04-06T09:38:56.248Z,11.38
2023-04-06T09:41:59.060Z,9.60
2023-04-06T09:45:04.373Z,11.35
2023-04-06T09:48:07.102Z,11.63
2023-04-06T09:51:09.601Z,12.63
2023-04-06T09:54:12.189Z,10.88
2023-04-06T09:57:27.461Z,10.73
2023-04-06T10:00:29.901Z,11.80
2023-04-06T10:03:38.808Z,10.73
2023-04-06T10:06:44.505Z,11.80
2023-04-06T10:09:46.953Z,9.95
2023-04-06T10:12:50.469Z,10.65
2023-04-06T10:15:53.329Z,10.07
2023-04-06T10:19:03.493Z,12.07
2023-04-06T10:22:05.988Z,9.55
2023-04-06T10:25:09.534Z,10.88
2023-04-06T10:28:12.756Z,10.93
2023-04-06T10:31:15.709Z,12.10
2023-04-06T10:34:18.293Z,10.65
2023-04-06T10:37:22.485Z,9.85
2023-04-06T10:40:28.329Z,9.38
2023-04-06T10:43:34.840Z,11.40
2023-04-06T10:46:37.435Z,12.02
2023-04-06T10:49:40.007Z,10.35
2023-04-06T10:52:42.683Z,9.48
2023-04-06T10:55:45.383Z,8.52
2023-04-06T10:58:53.403Z,9.45
2023-04-06T11:01:56.997Z,15.48
2023-04-06T11:04:59.730Z,15.45
2023-04-06T11:08:02.209Z,11.25
2023-04-06T11:11:11.798Z,10.85
2023-04-06T11:14:14.422Z,10.13
2023-04-06T11:17:17.384Z,10.57
2023-04-06T11:20:20.697Z,7.88
2023-04-06T11:23:25.398Z,9.02
2023-04-06T11:26:28.041Z,9.68
2023-04-06T11:29:34.910Z,8.32
2023-04-06T11:32:44.768Z,9.52
2023-04-06T11:35:47.834Z,9.40
2023-04-06T11:38:50.856Z,8.60
2023-04-06T11:42:08.534Z,9.45
2023-04-06T11:45:12.914Z,7.97
2023-04-06T11:48:19.624Z,8.52
2023-04-06T11:51:25.699Z,14.93
2023-04-06T11:54:38.765Z,10.88
2023-04-06T11:57:42.337Z,10.23
2023-04-06T12:00:47.598Z,9.10
2023-04-06T12:03:52.181Z,9.43
2023-04-06T12:06:55.037Z,8.52
2023-04-06T12:09:57.599Z,8.45
2023-04-06T12:13:00.312Z,7.90
2023-04-06T12:16:02.791Z,7.38
2023-04-06T12:19:05.441Z,8.15
2023-04-06T12:22:07.952Z,8.55
2023-04-06T12:25:10.674Z,12.15
2023-04-06T12:28:13.124Z,9.88
2023-04-06T12:31:19.245Z,7.45
2023-04-06T12:34:21.818Z,7.65
2023-04-06T12:37:24.446Z,8.35
2023-04-06T12:40:26.970Z,9.38
2023-04-06T12:43:29.538Z,9.15
2023-04-06T12:46:32.125Z,9.80
2023-04-06T12:49:34.622Z,7.63
2023-04-06T12:52:37.615Z,11.63
2023-04-06T12:55:40.128Z,8.70
2023-04-06T12:58:43.290Z,9.93
2023-04-06T13:01:46.525Z,8.43
2023-04-06T13:04:50.167Z,8.73
2023-04-06T13:07:52.698Z,10.15
2023-04-06T13:10:55.636Z,7.75
2023-04-06T13:13:58.252Z,10.88
2023-04-06T13:17:01.392Z,9.90
2023-04-06T13:20:04.653Z,9.27
2023-04-06T13:29:12.100Z,7.22
2023-04-06T13:32:15.069Z,9.23
2023-04-06T13:35:17.986Z,11.23
2023-04-06T13:38:20.619Z,8.88
2023-04-06T13:41:23.732Z,7.25
2023-04-06T13:44:27.148Z,9.25
2023-04-06T13:47:29.651Z,8.98
2023-04-06T13:50:32.105Z,8.68
2023-04-06T13:53:34.548Z,8.60
2023-04-06T13:56:37.333Z,8.15
2023-04-06T13:59:39.925Z,9.95
2023-04-06T14:02:42.620Z,8.10
2023-04-06T14:05:46.566Z,8.52
2023-04-06T14:08:49.174Z,7.38
2023-04-06T14:11:51.860Z,7.90
2023-04-06T14:14:54.327Z,6.95
2023-04-06T14:17:57.874Z,9.38
2023-04-06T14:21:00.527Z,9.35
2023-04-06T14:24:02.974Z,9.10
2023-04-06T14:27:05.382Z,6.78
2023-04-06T14:30:08.532Z,8.20
2023-04-06T14:33:10.928Z,8.23
2023-04-06T14:36:13.627Z,10.13
2023-04-06T14:39:16.054Z,8.25
2023-04-06T14:42:18.479Z,9.63
2023-04-06T14:45:22.805Z,11.13
2023-04-06T14:48:25.498Z,11.07
2023-04-06T14:51:30.854Z,8.90
2023-04-06T14:54:33.233Z,10.80
2023-04-06T14:57:35.830Z,13.40
2023-04-06T15:00:39.448Z,12.05
2023-04-06T15:03:41.945Z,10.43
2023-04-06T15:06:44.597Z,8.93
2023-04-06T15:09:47.005Z,7.68
2023-04-06T15:12:49.641Z,9.75
2023-04-06T15:15:52.741Z,8.07
2023-04-06T15:18:55.630Z,8.98
2023-04-06T15:21:59.677Z,8.65
2023-04-06T15:25:03.423Z,7.00
2023-04-06T15:28:05.921Z,8.10
2023-04-06T15:31:24.460Z,8.07
2023-04-06T15:34:38.827Z,7.65
2023-04-06T15:37:41.284Z,9.25
2023-04-06T15:40:47.909Z,11.65
2023-04-06T15:43:53.256Z,10.90
2023-04-06T15:46:55.933Z,8.73
2023-04-06T15:49:58.379Z,7.05
2023-04-06T15:53:01.135Z,8.65
2023-04-06T15:56:04.945Z,10.93
2023-04-06T15:59:08.169Z,8.95
2023-04-06T16:02:10.737Z,8.38
2023-04-06T16:05:13.616Z,9.50
2023-04-06T16:08:16.739Z,8.63
2023-04-06T16:11:19.225Z,12.07
2023-04-06T16:14:21.945Z,10.40
2023-04-06T16:17:24.619Z,9.05
2023-04-06T16:20:27.562Z,9.43
2023-04-06T16:23:30.152Z,9.63
2023-04-06T16:26:32.972Z,11.63
2023-04-06T16:29:35.817Z,10.13
2023-04-06T16:32:38.478Z,9.25
2023-04-06T16:35:47.404Z,9.95
2023-04-06T16:38:50.221Z,8.82
2023-04-06T16:41:52.792Z,10.70
2023-04-06T16:44:55.907Z,10.63
2023-04-06T16:47:58.575Z,9.40
2023-04-06T16:51:07.655Z,10.93
2023-04-06T16:54:10.057Z,11.52
2023-04-06T16:57:14.186Z,9.32
2023-04-06T17:00:17.416Z,11.48
2023-04-06T17:03:20.114Z,10.63
2023-04-06T17:06:22.800Z,9.60
2023-04-06T17:09:25.461Z,9.48
2023-04-06T17:12:29.000Z,12.32
2023-04-06T17:15:31.802Z,11.77
2023-04-06T17:18:34.978Z,13.75
2023-04-06T17:21:39.857Z,11.20
2023-04-06T17:24:42.294Z,13.60
2023-04-06T17:27:44.960Z,12.52
2023-04-06T17:30:47.508Z,12.43
2023-04-06T17:33:50.500Z,13.57
2023-04-06T17:36:52.902Z,11.77
2023-04-06T17:39:55.490Z,11.50
2023-04-06T17:42:58.075Z,12.20
2023-04-06T17:46:00.832Z,14.63
2023-04-06T17:49:03.368Z,11.57
2023-04-06T17:52:05.883Z,11.82
2023-04-06T17:55:08.594Z,11.88
2023-04-06T17:58:11.208Z,30.83
2023-04-06T18:01:14.813Z,12.88
2023-04-06T18:04:17.434Z,26.45
2023-04-06T18:07:19.940Z,14.48
2023-04-06T18:10:22.838Z,12.85
2023-04-06T18:13:25.472Z,13.60
2023-04-06T18:16:28.521Z,16.13
2023-04-06T18:19:32.304Z,17.85
2023-04-06T18:22:36.750Z,15.23
2023-04-06T18:25:42.309Z,16.88
2023-04-06T18:28:45.150Z,19.38
2023-04-06T18:31:52.120Z,16.88
2023-04-06T18:34:58.401Z,18.30
2023-04-06T18:38:01.020Z,18.48
2023-04-06T18:41:03.705Z,16.90
2023-04-06T18:44:06.416Z,19.25
2023-04-06T18:47:08.902Z,18.38
2023-04-06T18:50:11.468Z,17.90
2023-04-06T18:53:13.972Z,17.88
2023-04-06T18:56:17.645Z,19.70
2023-04-06T19:02:22.349Z,17.23
2023-04-06T19:05:25.270Z,17.33
2023-04-06T19:08:27.748Z,16.65
2023-04-06T19:11:30.838Z,17.42
2023-04-06T19:14:33.942Z,19.27
2023-04-06T19:17:38.038Z,18.45
2023-04-06T19:20:40.603Z,18.08
2023-04-06T19:23:46.909Z,18.73
2023-04-06T19:26:49.451Z,19.27
2023-04-06T19:29:52.272Z,20.08
2023-04-06T19:32:54.819Z,19.13
2023-04-06T19:35:57.336Z,19.42
2023-04-06T19:38:59.963Z,20.52
2023-04-06T19:42:02.398Z,21.08
2023-04-06T19:45:06.099Z,19.13
2023-04-06T19:48:08.733Z,18.70
2023-04-06T19:51:11.312Z,19.13
2023-04-06T19:54:13.853Z,19.23
2023-04-06T19:57:16.697Z,19.75
2023-04-06T20:00:19.487Z,19.60
2023-04-06T20:03:21.988Z,18.13
2023-04-06T20:06:24.986Z,19.20
2023-04-06T20:09:28.054Z,20.75
2023-04-06T20:12:30.508Z,20.58
2023-04-06T20:15:33.096Z,20.33
2023-04-06T20:18:35.576Z,20.10
2023-04-06T20:21:39.631Z,20.55
2023-04-06T20:24:42.248Z,18.02
2023-04-06T20:27:45.720Z,19.48
2023-04-06T20:30:52.464Z,20.38
2023-04-06T20:33:55.411Z,20.98
2023-04-06T20:36:58.637Z,22.52
2023-04-06T20:40:01.736Z,20.35
2023-04-06T20:43:05.625Z,20.20
2023-04-06T20:46:09.375Z,20.13
2023-04-06T20:49:15.102Z,22.00
2023-04-06T20:52:17.684Z,19.95
2023-04-06T20:55:20.468Z,21.55
2023-04-06T20:58:23.358Z,20.98
2023-04-06T21:01:26.262Z,23.10
2023-04-06T21:04:28.950Z,20.83
2023-04-06T21:07:31.488Z,22.48
2023-04-06T21:10:34.001Z,22.27
2023-04-06T21:13:36.823Z,19.15
2023-04-06T21:16:39.593Z,21.52
2023-04-06T21:19:42.067Z,19.92
2023-04-06T21:22:44.725Z,21.98
2023-04-06T21:25:47.345Z,19.48
2023-04-06T21:28:49.785Z,19.25
2023-04-06T21:31:52.196Z,19.85
2023-04-06T21:34:54.624Z,22.08
2023-04-06T21:37:57.247Z,25.98
2023-04-06T21:40:59.921Z,21.80
2023-04-06T21:44:02.627Z,21.77
2023-04-06T21:47:05.267Z,18.50
2023-04-06T21:50:08.345Z,20.30
2023-04-06T21:53:10.974Z,19.95
2023-04-06T21:56:13.836Z,21.67
2023-04-06T21:59:16.463Z,21.95
2023-04-06T22:02:19.015Z,22.05
2023-04-06T22:05:21.563Z,22.10
2023-04-06T22:08:33.411Z,21.50
2023-04-06T22:11:36.348Z,20.52
2023-04-06T22:14:38.977Z,19.83
2023-04-06T22:17:41.530Z,20.92
2023-04-06T22:20:44.153Z,21.25
2023-04-06T22:23:46.576Z,21.65
2023-04-06T22:26:49.087Z,20.50
2023-04-06T22:29:51.780Z,21.67
2023-04-06T22:32:54.212Z,25.65
2023-04-06T22:35:56.780Z,23.20
2023-04-06T22:38:59.146Z,24.88
2023-04-06T22:42:01.649Z,23.30
2023-04-06T22:45:04.358Z,22.40
2023-04-06T22:48:06.925Z,23.13
2023-04-06T22:51:09.332Z,18.58
2023-04-06T22:54:11.819Z,20.52
2023-04-06T22:57:14.331Z,20.85
2023-04-06T23:00:17.216Z,20.23
2023-04-06T23:03:19.707Z,21.23
2023-04-06T23:06:22.195Z,21.45
2023-04-06T23:09:24.773Z,20.83
2023-04-06T23:12:27.256Z,21.35
2023-04-06T23:15:29.798Z,20.80
2023-04-06T23:18:32.210Z,22.70
2023-04-06T23:21:34.742Z,21.52
2023-04-06T23:24:37.331Z,20.95
2023-04-06T23:27:39.761Z,22.25
2023-04-06T23:30:42.641Z,22.48
2023-04-06T23:33:45.088Z,23.35
2023-04-06T23:36:47.660Z,25.83
2023-04-06T23:39:50.338Z,20.55
2023-04-06T23:42:52.754Z,22.02
2023-04-06T23:45:55.175Z,22.65
2023-04-06T23:48:57.627Z,22.58
2023-04-06T23:52:00.027Z,21.33
2023-04-06T23:55:02.445Z,20.73
2023-04-06T23:58:04.951Z,22.63
